Valhermoso Sp, Alabama
Current Conditions -  °F | °C
As of 9:53 PM on Thursday 27 Nov 2014 (Local Time) from KHSV Reporting Station
Scattered Clouds Scattered Clouds  
Wind Chill: 30°   Ceiling: Unl
Heat Index: 36°   Visibility: 10mi
Dew Point: 26°   Wind: 8mph
Humidity: 67%   Direction: 350°N
Pressure: 30.46"   Gusts: NA
Location:  34.5494°N, 86.6929°W
Report Text: KHSV 280353Z 35007KT 10SM SCT038 02/M03 A3046 RMK AO2 SLP317 T00221033
Loading
Personal Weather Stations






























Interactive Weather Map New forecast layout! Learn more

10-Day Weather Forecast

Advertisements
Track Severe Weather on mobile